sensor_id;sensor_type;location;lat;lon;timestamp;P1;durP1;ratioP1;P2;durP2;ratioP2
63312;SDS011;49442;45.640;13.812;2024-01-15T00:02:09;170.50;;;101.82;;
63312;SDS011;49442;45.640;13.812;2024-01-15T00:04:38;170.65;;;103.45;;
63312;SDS011;49442;45.640;13.812;2024-01-15T00:07:08;170.38;;;103.43;;
63312;SDS011;49442;45.640;13.812;2024-01-15T00:09:34;179.55;;;106.68;;
63312;SDS011;49442;45.640;13.812;2024-01-15T00:12:00;185.02;;;111.70;;
63312;SDS011;49442;45.640;13.812;2024-01-15T00:14:27;180.63;;;109.43;;
63312;SDS011;49442;45.640;13.812;2024-01-15T00:16:53;184.10;;;107.07;;
63312;SDS011;49442;45.640;13.812;2024-01-15T00:19:20;189.00;;;111.03;;
63312;SDS011;49442;45.640;13.812;2024-01-15T00:21:46;186.07;;;111.10;;
63312;SDS011;49442;45.640;13.812;2024-01-15T00:24:12;187.98;;;109.72;;
63312;SDS011;49442;45.640;13.812;2024-01-15T00:26:39;211.82;;;115.47;;
63312;SDS011;49442;45.640;13.812;2024-01-15T00:29:06;204.13;;;115.32;;
63312;SDS011;49442;45.640;13.812;2024-01-15T00:31:32;203.88;;;119.63;;
63312;SDS011;49442;45.640;13.812;2024-01-15T00:33:58;216.73;;;122.63;;
63312;SDS011;49442;45.640;13.812;2024-01-15T00:36:24;223.43;;;127.18;;
63312;SDS011;49442;45.640;13.812;2024-01-15T00:38:50;215.23;;;122.95;;
63312;SDS011;49442;45.640;13.812;2024-01-15T00:41:16;216.23;;;122.15;;
63312;SDS011;49442;45.640;13.812;2024-01-15T00:43:43;206.45;;;117.70;;
63312;SDS011;49442;45.640;13.812;2024-01-15T00:46:10;212.43;;;121.88;;
63312;SDS011;49442;45.640;13.812;2024-01-15T00:48:36;234.38;;;126.60;;
63312;SDS011;49442;45.640;13.812;2024-01-15T00:51:04;214.13;;;123.00;;
63312;SDS011;49442;45.640;13.812;2024-01-15T00:53:29;209.20;;;119.97;;
63312;SDS011;49442;45.640;13.812;2024-01-15T00:55:56;216.10;;;123.38;;
63312;SDS011;49442;45.640;13.812;2024-01-15T00:58:21;224.90;;;126.10;;
63312;SDS011;49442;45.640;13.812;2024-01-15T01:00:47;224.70;;;124.53;;
63312;SDS011;49442;45.640;13.812;2024-01-15T01:03:13;228.93;;;126.75;;
63312;SDS011;49442;45.640;13.812;2024-01-15T01:05:39;241.25;;;128.77;;
63312;SDS011;49442;45.640;13.812;2024-01-15T01:08:04;243.20;;;127.03;;
63312;SDS011;49442;45.640;13.812;2024-01-15T01:10:30;226.82;;;127.53;;
63312;SDS011;49442;45.640;13.812;2024-01-15T01:12:56;227.40;;;125.70;;
63312;SDS011;49442;45.640;13.812;2024-01-15T01:15:22;236.68;;;126.38;;
63312;SDS011;49442;45.640;13.812;2024-01-15T01:17:47;252.77;;;130.25;;
63312;SDS011;49442;45.640;13.812;2024-01-15T01:20:13;240.75;;;128.50;;
63312;SDS011;49442;45.640;13.812;2024-01-15T01:22:40;214.68;;;120.97;;
63312;SDS011;49442;45.640;13.812;2024-01-15T01:25:06;210.73;;;121.18;;
63312;SDS011;49442;45.640;13.812;2024-01-15T01:27:32;217.20;;;121.93;;
63312;SDS011;49442;45.640;13.812;2024-01-15T01:29:58;215.52;;;122.97;;
63312;SDS011;49442;45.640;13.812;2024-01-15T01:32:23;214.20;;;121.35;;
63312;SDS011;49442;45.640;13.812;2024-01-15T01:34:49;237.57;;;123.00;;
63312;SDS011;49442;45.640;13.812;2024-01-15T01:37:15;237.65;;;122.57;;
63312;SDS011;49442;45.640;13.812;2024-01-15T01:39:41;234.93;;;122.82;;
63312;SDS011;49442;45.640;13.812;2024-01-15T01:42:08;239.88;;;125.95;;
63312;SDS011;49442;45.640;13.812;2024-01-15T01:44:33;217.50;;;118.47;;
63312;SDS011;49442;45.640;13.812;2024-01-15T01:46:59;208.80;;;112.43;;
63312;SDS011;49442;45.640;13.812;2024-01-15T01:49:29;210.25;;;112.85;;
63312;SDS011;49442;45.640;13.812;2024-01-15T01:51:56;184.90;;;104.25;;
63312;SDS011;49442;45.640;13.812;2024-01-15T01:54:23;190.75;;;103.43;;
63312;SDS011;49442;45.640;13.812;2024-01-15T01:56:51;183.50;;;100.32;;
63312;SDS011;49442;45.640;13.812;2024-01-15T01:59:17;184.25;;;100.18;;
63312;SDS011;49442;45.640;13.812;2024-01-15T02:01:44;163.75;;;95.00;;
63312;SDS011;49442;45.640;13.812;2024-01-15T02:04:10;171.43;;;95.13;;
63312;SDS011;49442;45.640;13.812;2024-01-15T02:06:36;161.50;;;90.35;;
63312;SDS011;49442;45.640;13.812;2024-01-15T02:09:03;147.18;;;87.13;;
63312;SDS011;49442;45.640;13.812;2024-01-15T02:11:30;153.93;;;87.03;;
63312;SDS011;49442;45.640;13.812;2024-01-15T02:13:56;150.55;;;86.28;;
63312;SDS011;49442;45.640;13.812;2024-01-15T02:16:22;148.15;;;83.63;;
63312;SDS011;49442;45.640;13.812;2024-01-15T02:18:48;159.85;;;87.93;;
63312;SDS011;49442;45.640;13.812;2024-01-15T02:21:13;175.75;;;93.05;;
63312;SDS011;49442;45.640;13.812;2024-01-15T02:23:39;155.82;;;88.45;;
63312;SDS011;49442;45.640;13.812;2024-01-15T02:26:05;152.23;;;87.60;;
63312;SDS011;49442;45.640;13.812;2024-01-15T02:28:33;165.98;;;88.85;;
63312;SDS011;49442;45.640;13.812;2024-01-15T02:30:59;171.25;;;91.40;;
63312;SDS011;49442;45.640;13.812;2024-01-15T02:33:25;177.95;;;90.38;;
63312;SDS011;49442;45.640;13.812;2024-01-15T02:35:51;166.95;;;88.85;;
63312;SDS011;49442;45.640;13.812;2024-01-15T02:38:17;152.75;;;85.25;;
63312;SDS011;49442;45.640;13.812;2024-01-15T02:40:43;150.77;;;80.45;;
63312;SDS011;49442;45.640;13.812;2024-01-15T02:43:09;159.50;;;83.30;;
63312;SDS011;49442;45.640;13.812;2024-01-15T02:45:35;163.20;;;84.80;;
63312;SDS011;49442;45.640;13.812;2024-01-15T02:48:01;166.52;;;85.97;;
63312;SDS011;49442;45.640;13.812;2024-01-15T02:50:27;172.30;;;83.22;;
63312;SDS011;49442;45.640;13.812;2024-01-15T02:52:53;165.80;;;85.10;;
63312;SDS011;49442;45.640;13.812;2024-01-15T02:55:18;159.75;;;83.00;;
63312;SDS011;49442;45.640;13.812;2024-01-15T02:57:44;150.30;;;81.60;;
63312;SDS011;49442;45.640;13.812;2024-01-15T03:00:10;152.75;;;81.05;;
63312;SDS011;49442;45.640;13.812;2024-01-15T03:02:37;153.15;;;81.30;;
63312;SDS011;49442;45.640;13.812;2024-01-15T03:05:08;164.88;;;84.88;;
63312;SDS011;49442;45.640;13.812;2024-01-15T03:07:36;155.73;;;82.43;;
63312;SDS011;49442;45.640;13.812;2024-01-15T03:10:02;160.00;;;83.32;;
63312;SDS011;49442;45.640;13.812;2024-01-15T03:12:28;155.32;;;84.60;;
63312;SDS011;49442;45.640;13.812;2024-01-15T03:14:54;152.25;;;83.72;;
63312;SDS011;49442;45.640;13.812;2024-01-15T03:17:19;148.23;;;81.00;;
63312;SDS011;49442;45.640;13.812;2024-01-15T03:19:45;148.52;;;85.30;;
63312;SDS011;49442;45.640;13.812;2024-01-15T03:22:11;147.05;;;83.97;;
63312;SDS011;49442;45.640;13.812;2024-01-15T03:24:37;154.23;;;89.75;;
63312;SDS011;49442;45.640;13.812;2024-01-15T03:27:02;158.43;;;85.05;;
63312;SDS011;49442;45.640;13.812;2024-01-15T03:29:29;149.15;;;82.88;;
63312;SDS011;49442;45.640;13.812;2024-01-15T03:31:54;151.70;;;86.97;;
63312;SDS011;49442;45.640;13.812;2024-01-15T03:34:20;149.50;;;85.97;;
63312;SDS011;49442;45.640;13.812;2024-01-15T03:36:46;156.15;;;87.65;;
63312;SDS011;49442;45.640;13.812;2024-01-15T03:39:11;148.55;;;83.00;;
63312;SDS011;49442;45.640;13.812;2024-01-15T03:41:37;151.35;;;83.50;;
63312;SDS011;49442;45.640;13.812;2024-01-15T03:44:03;168.50;;;90.78;;
63312;SDS011;49442;45.640;13.812;2024-01-15T03:46:28;153.10;;;87.75;;
63312;SDS011;49442;45.640;13.812;2024-01-15T03:48:54;159.48;;;90.95;;
63312;SDS011;49442;45.640;13.812;2024-01-15T03:51:20;156.57;;;88.80;;
63312;SDS011;49442;45.640;13.812;2024-01-15T03:53:46;148.48;;;85.93;;
63312;SDS011;49442;45.640;13.812;2024-01-15T03:56:11;147.73;;;86.50;;
63312;SDS011;49442;45.640;13.812;2024-01-15T03:58:37;144.52;;;82.20;;
63312;SDS011;49442;45.640;13.812;2024-01-15T04:01:03;132.38;;;78.60;;
63312;SDS011;49442;45.640;13.812;2024-01-15T04:03:29;132.13;;;76.60;;
63312;SDS011;49442;45.640;13.812;2024-01-15T04:05:54;142.43;;;75.10;;
63312;SDS011;49442;45.640;13.812;2024-01-15T04:08:20;135.57;;;79.20;;
63312;SDS011;49442;45.640;13.812;2024-01-15T04:10:46;142.57;;;79.78;;
63312;SDS011;49442;45.640;13.812;2024-01-15T04:13:11;143.85;;;79.88;;
63312;SDS011;49442;45.640;13.812;2024-01-15T04:15:37;140.68;;;79.05;;
63312;SDS011;49442;45.640;13.812;2024-01-15T04:18:03;137.80;;;77.18;;
63312;SDS011;49442;45.640;13.812;2024-01-15T04:20:29;134.18;;;77.10;;
63312;SDS011;49442;45.640;13.812;2024-01-15T04:22:54;132.63;;;73.57;;
63312;SDS011;49442;45.640;13.812;2024-01-15T04:25:20;123.22;;;70.88;;
63312;SDS011;49442;45.640;13.812;2024-01-15T04:27:46;142.35;;;75.18;;
63312;SDS011;49442;45.640;13.812;2024-01-15T04:30:12;136.07;;;74.40;;
63312;SDS011;49442;45.640;13.812;2024-01-15T04:32:38;127.85;;;72.55;;
63312;SDS011;49442;45.640;13.812;2024-01-15T04:35:03;127.97;;;74.88;;
63312;SDS011;49442;45.640;13.812;2024-01-15T04:37:29;126.82;;;72.43;;
63312;SDS011;49442;45.640;13.812;2024-01-15T04:39:55;122.20;;;70.22;;
63312;SDS011;49442;45.640;13.812;2024-01-15T04:42:22;121.28;;;68.07;;
63312;SDS011;49442;45.640;13.812;2024-01-15T04:44:48;131.85;;;71.90;;
63312;SDS011;49442;45.640;13.812;2024-01-15T04:47:14;133.38;;;71.45;;
63312;SDS011;49442;45.640;13.812;2024-01-15T04:49:39;121.85;;;67.68;;
63312;SDS011;49442;45.640;13.812;2024-01-15T04:52:05;131.73;;;71.70;;
63312;SDS011;49442;45.640;13.812;2024-01-15T04:54:31;120.53;;;70.28;;
63312;SDS011;49442;45.640;13.812;2024-01-15T04:56:57;128.85;;;71.60;;
63312;SDS011;49442;45.640;13.812;2024-01-15T04:59:22;123.60;;;68.35;;
63312;SDS011;49442;45.640;13.812;2024-01-15T05:01:48;121.05;;;66.70;;
63312;SDS011;49442;45.640;13.812;2024-01-15T05:04:14;120.07;;;66.90;;
63312;SDS011;49442;45.640;13.812;2024-01-15T05:06:40;122.03;;;66.82;;
63312;SDS011;49442;45.640;13.812;2024-01-15T05:09:05;125.05;;;66.53;;
63312;SDS011;49442;45.640;13.812;2024-01-15T05:11:32;131.07;;;73.00;;
63312;SDS011;49442;45.640;13.812;2024-01-15T05:13:57;135.32;;;68.97;;
63312;SDS011;49442;45.640;13.812;2024-01-15T05:16:23;124.07;;;68.10;;
63312;SDS011;49442;45.640;13.812;2024-01-15T05:18:49;127.85;;;68.75;;
63312;SDS011;49442;45.640;13.812;2024-01-15T05:21:15;125.90;;;69.00;;
63312;SDS011;49442;45.640;13.812;2024-01-15T05:23:41;117.20;;;65.93;;
63312;SDS011;49442;45.640;13.812;2024-01-15T05:26:06;128.50;;;69.80;;
63312;SDS011;49442;45.640;13.812;2024-01-15T05:28:34;135.43;;;73.38;;
63312;SDS011;49442;45.640;13.812;2024-01-15T05:31:00;132.68;;;73.70;;
63312;SDS011;49442;45.640;13.812;2024-01-15T05:33:25;140.75;;;72.03;;
63312;SDS011;49442;45.640;13.812;2024-01-15T05:35:51;136.85;;;76.05;;
63312;SDS011;49442;45.640;13.812;2024-01-15T05:38:18;129.13;;;69.65;;
63312;SDS011;49442;45.640;13.812;2024-01-15T05:40:44;127.65;;;68.88;;
63312;SDS011;49442;45.640;13.812;2024-01-15T05:43:09;123.57;;;67.03;;
63312;SDS011;49442;45.640;13.812;2024-01-15T05:45:35;127.93;;;71.00;;
63312;SDS011;49442;45.640;13.812;2024-01-15T05:48:03;132.23;;;69.50;;
63312;SDS011;49442;45.640;13.812;2024-01-15T05:50:29;130.75;;;71.53;;
63312;SDS011;49442;45.640;13.812;2024-01-15T05:52:54;131.73;;;71.45;;
63312;SDS011;49442;45.640;13.812;2024-01-15T05:55:20;145.27;;;75.25;;
63312;SDS011;49442;45.640;13.812;2024-01-15T05:57:46;144.77;;;77.20;;
63312;SDS011;49442;45.640;13.812;2024-01-15T06:00:12;131.23;;;76.28;;
63312;SDS011;49442;45.640;13.812;2024-01-15T06:02:38;156.45;;;83.10;;
63312;SDS011;49442;45.640;13.812;2024-01-15T06:05:04;131.82;;;76.65;;
63312;SDS011;49442;45.640;13.812;2024-01-15T06:07:31;142.18;;;78.55;;
63312;SDS011;49442;45.640;13.812;2024-01-15T06:09:58;132.80;;;75.00;;
63312;SDS011;49442;45.640;13.812;2024-01-15T06:12:24;134.75;;;76.93;;
63312;SDS011;49442;45.640;13.812;2024-01-15T06:14:50;125.65;;;73.45;;
63312;SDS011;49442;45.640;13.812;2024-01-15T06:17:16;133.30;;;69.28;;
63312;SDS011;49442;45.640;13.812;2024-01-15T06:19:41;133.35;;;69.50;;
63312;SDS011;49442;45.640;13.812;2024-01-15T06:22:07;120.97;;;68.03;;
63312;SDS011;49442;45.640;13.812;2024-01-15T06:24:33;111.80;;;64.35;;
63312;SDS011;49442;45.640;13.812;2024-01-15T06:26:59;122.30;;;66.82;;
63312;SDS011;49442;45.640;13.812;2024-01-15T06:29:25;121.95;;;68.30;;
63312;SDS011;49442;45.640;13.812;2024-01-15T06:31:52;130.23;;;68.82;;
63312;SDS011;49442;45.640;13.812;2024-01-15T06:34:18;126.00;;;69.70;;
63312;SDS011;49442;45.640;13.812;2024-01-15T06:36:43;184.88;;;110.50;;
63312;SDS011;49442;45.640;13.812;2024-01-15T06:39:09;122.75;;;68.97;;
63312;SDS011;49442;45.640;13.812;2024-01-15T06:41:35;110.53;;;65.32;;
63312;SDS011;49442;45.640;13.812;2024-01-15T06:44:10;127.18;;;67.30;;
63312;SDS011;49442;45.640;13.812;2024-01-15T06:46:36;127.07;;;74.53;;
63312;SDS011;49442;45.640;13.812;2024-01-15T06:49:02;118.20;;;66.57;;
63312;SDS011;49442;45.640;13.812;2024-01-15T06:51:29;116.22;;;67.90;;
63312;SDS011;49442;45.640;13.812;2024-01-15T06:53:54;109.22;;;63.55;;
63312;SDS011;49442;45.640;13.812;2024-01-15T06:56:20;104.40;;;60.17;;
63312;SDS011;49442;45.640;13.812;2024-01-15T06:58:46;118.40;;;65.05;;
63312;SDS011;49442;45.640;13.812;2024-01-15T07:01:11;116.25;;;63.60;;
63312;SDS011;49442;45.640;13.812;2024-01-15T07:03:37;126.75;;;72.32;;
63312;SDS011;49442;45.640;13.812;2024-01-15T07:06:03;131.13;;;69.13;;
63312;SDS011;49442;45.640;13.812;2024-01-15T07:08:29;131.10;;;73.40;;
63312;SDS011;49442;45.640;13.812;2024-01-15T07:10:55;147.02;;;82.78;;
63312;SDS011;49442;45.640;13.812;2024-01-15T07:13:21;146.07;;;83.93;;
63312;SDS011;49442;45.640;13.812;2024-01-15T07:15:46;146.93;;;82.03;;
63312;SDS011;49442;45.640;13.812;2024-01-15T07:18:12;151.27;;;84.05;;
63312;SDS011;49442;45.640;13.812;2024-01-15T07:20:38;154.05;;;86.07;;
63312;SDS011;49442;45.640;13.812;2024-01-15T07:23:03;230.90;;;120.50;;
63312;SDS011;49442;45.640;13.812;2024-01-15T07:25:29;166.20;;;95.88;;
63312;SDS011;49442;45.640;13.812;2024-01-15T07:27:55;132.85;;;78.28;;
63312;SDS011;49442;45.640;13.812;2024-01-15T07:30:21;116.40;;;69.45;;
63312;SDS011;49442;45.640;13.812;2024-01-15T07:32:47;129.10;;;72.88;;
63312;SDS011;49442;45.640;13.812;2024-01-15T07:35:14;125.35;;;71.90;;
63312;SDS011;49442;45.640;13.812;2024-01-15T07:37:40;133.07;;;76.82;;
63312;SDS011;49442;45.640;13.812;2024-01-15T07:40:06;147.60;;;83.05;;
63312;SDS011;49442;45.640;13.812;2024-01-15T07:42:33;137.57;;;78.28;;
63312;SDS011;49442;45.640;13.812;2024-01-15T07:45:00;144.80;;;79.82;;
63312;SDS011;49442;45.640;13.812;2024-01-15T07:47:26;130.02;;;73.28;;
63312;SDS011;49442;45.640;13.812;2024-01-15T07:49:52;124.13;;;71.50;;
63312;SDS011;49442;45.640;13.812;2024-01-15T07:52:19;130.00;;;70.57;;
63312;SDS011;49442;45.640;13.812;2024-01-15T07:54:44;130.40;;;74.00;;
63312;SDS011;49442;45.640;13.812;2024-01-15T07:57:10;134.30;;;77.28;;
63312;SDS011;49442;45.640;13.812;2024-01-15T07:59:36;137.25;;;75.97;;
63312;SDS011;49442;45.640;13.812;2024-01-15T08:02:02;128.40;;;75.25;;
63312;SDS011;49442;45.640;13.812;2024-01-15T08:04:28;122.40;;;73.70;;
63312;SDS011;49442;45.640;13.812;2024-01-15T08:06:54;134.68;;;74.50;;
63312;SDS011;49442;45.640;13.812;2024-01-15T08:09:19;122.88;;;73.43;;
63312;SDS011;49442;45.640;13.812;2024-01-15T08:11:45;122.90;;;72.25;;
63312;SDS011;49442;45.640;13.812;2024-01-15T08:14:11;141.48;;;72.82;;
63312;SDS011;49442;45.640;13.812;2024-01-15T08:16:38;124.55;;;73.38;;
63312;SDS011;49442;45.640;13.812;2024-01-15T08:19:04;115.70;;;72.95;;
63312;SDS011;49442;45.640;13.812;2024-01-15T08:21:30;127.53;;;73.40;;
63312;SDS011;49442;45.640;13.812;2024-01-15T08:24:00;116.18;;;69.90;;
63312;SDS011;49442;45.640;13.812;2024-01-15T08:26:27;113.55;;;69.80;;
63312;SDS011;49442;45.640;13.812;2024-01-15T08:28:53;113.68;;;71.25;;
63312;SDS011;49442;45.640;13.812;2024-01-15T08:31:18;108.88;;;67.68;;
63312;SDS011;49442;45.640;13.812;2024-01-15T08:33:44;108.80;;;69.18;;
63312;SDS011;49442;45.640;13.812;2024-01-15T08:36:10;111.70;;;70.63;;
63312;SDS011;49442;45.640;13.812;2024-01-15T08:38:37;94.28;;;62.88;;
63312;SDS011;49442;45.640;13.812;2024-01-15T08:41:02;101.43;;;64.65;;
63312;SDS011;49442;45.640;13.812;2024-01-15T08:43:28;104.07;;;64.40;;
63312;SDS011;49442;45.640;13.812;2024-01-15T08:45:56;98.68;;;63.72;;
63312;SDS011;49442;45.640;13.812;2024-01-15T08:48:22;98.07;;;62.22;;
63312;SDS011;49442;45.640;13.812;2024-01-15T08:50:48;105.28;;;64.95;;
63312;SDS011;49442;45.640;13.812;2024-01-15T08:53:14;102.93;;;66.45;;
63312;SDS011;49442;45.640;13.812;2024-01-15T08:55:40;101.10;;;64.75;;
63312;SDS011;49442;45.640;13.812;2024-01-15T08:58:07;101.00;;;64.95;;
63312;SDS011;49442;45.640;13.812;2024-01-15T09:00:33;104.13;;;64.50;;
63312;SDS011;49442;45.640;13.812;2024-01-15T09:02:59;104.18;;;65.60;;
63312;SDS011;49442;45.640;13.812;2024-01-15T09:05:25;102.07;;;66.05;;
63312;SDS011;49442;45.640;13.812;2024-01-15T09:07:51;101.97;;;65.95;;
63312;SDS011;49442;45.640;13.812;2024-01-15T09:10:19;109.57;;;65.50;;
63312;SDS011;49442;45.640;13.812;2024-01-15T09:12:45;110.60;;;70.07;;
63312;SDS011;49442;45.640;13.812;2024-01-15T09:15:11;104.28;;;67.93;;
63312;SDS011;49442;45.640;13.812;2024-01-15T09:17:37;117.63;;;73.68;;
63312;SDS011;49442;45.640;13.812;2024-01-15T09:20:03;112.15;;;73.10;;
63312;SDS011;49442;45.640;13.812;2024-01-15T09:22:32;132.07;;;82.72;;
63312;SDS011;49442;45.640;13.812;2024-01-15T09:24:58;128.18;;;82.63;;
63312;SDS011;49442;45.640;13.812;2024-01-15T09:27:24;132.35;;;87.32;;
63312;SDS011;49442;45.640;13.812;2024-01-15T09:29:51;135.88;;;85.80;;
63312;SDS011;49442;45.640;13.812;2024-01-15T09:32:17;127.22;;;85.78;;
63312;SDS011;49442;45.640;13.812;2024-01-15T09:34:43;135.15;;;85.10;;
63312;SDS011;49442;45.640;13.812;2024-01-15T09:37:11;136.95;;;83.95;;
63312;SDS011;49442;45.640;13.812;2024-01-15T09:39:37;132.73;;;84.82;;
63312;SDS011;49442;45.640;13.812;2024-01-15T09:42:03;128.18;;;85.32;;
63312;SDS011;49442;45.640;13.812;2024-01-15T09:44:30;125.82;;;79.78;;
63312;SDS011;49442;45.640;13.812;2024-01-15T09:46:57;124.72;;;80.28;;
63312;SDS011;49442;45.640;13.812;2024-01-15T09:49:23;121.75;;;78.57;;
63312;SDS011;49442;45.640;13.812;2024-01-15T09:51:49;124.43;;;79.10;;
63312;SDS011;49442;45.640;13.812;2024-01-15T09:54:15;113.70;;;73.05;;
63312;SDS011;49442;45.640;13.812;2024-01-15T09:56:42;119.13;;;74.63;;
63312;SDS011;49442;45.640;13.812;2024-01-15T09:59:11;123.80;;;77.32;;
63312;SDS011;49442;45.640;13.812;2024-01-15T10:01:43;118.72;;;77.32;;
63312;SDS011;49442;45.640;13.812;2024-01-15T10:04:09;116.22;;;73.75;;
63312;SDS011;49442;45.640;13.812;2024-01-15T10:06:36;114.90;;;71.78;;
63312;SDS011;49442;45.640;13.812;2024-01-15T10:09:04;108.50;;;70.15;;
63312;SDS011;49442;45.640;13.812;2024-01-15T10:11:30;118.50;;;73.50;;
63312;SDS011;49442;45.640;13.812;2024-01-15T10:13:56;113.00;;;72.72;;
63312;SDS011;49442;45.640;13.812;2024-01-15T10:16:22;114.95;;;74.07;;
63312;SDS011;49442;45.640;13.812;2024-01-15T10:18:49;124.40;;;77.28;;
63312;SDS011;49442;45.640;13.812;2024-01-15T10:21:14;119.18;;;72.35;;
63312;SDS011;49442;45.640;13.812;2024-01-15T10:23:41;106.55;;;69.82;;
63312;SDS011;49442;45.640;13.812;2024-01-15T10:26:06;109.43;;;70.53;;
63312;SDS011;49442;45.640;13.812;2024-01-15T10:28:32;114.85;;;71.95;;
63312;SDS011;49442;45.640;13.812;2024-01-15T10:30:58;101.32;;;68.72;;
63312;SDS011;49442;45.640;13.812;2024-01-15T10:33:25;106.05;;;67.15;;
63312;SDS011;49442;45.640;13.812;2024-01-15T10:35:55;100.65;;;65.88;;
63312;SDS011;49442;45.640;13.812;2024-01-15T10:38:22;109.00;;;68.00;;
63312;SDS011;49442;45.640;13.812;2024-01-15T10:40:52;100.57;;;65.57;;
63312;SDS011;49442;45.640;13.812;2024-01-15T10:43:18;99.43;;;64.40;;
63312;SDS011;49442;45.640;13.812;2024-01-15T10:45:45;99.97;;;67.72;;
63312;SDS011;49442;45.640;13.812;2024-01-15T10:48:11;99.00;;;63.38;;
63312;SDS011;49442;45.640;13.812;2024-01-15T10:50:38;107.82;;;66.00;;
63312;SDS011;49442;45.640;13.812;2024-01-15T10:53:04;99.50;;;64.72;;
63312;SDS011;49442;45.640;13.812;2024-01-15T10:55:30;100.82;;;63.67;;
63312;SDS011;49442;45.640;13.812;2024-01-15T10:58:00;104.38;;;64.10;;
63312;SDS011;49442;45.640;13.812;2024-01-15T11:00:28;95.78;;;63.08;;
63312;SDS011;49442;45.640;13.812;2024-01-15T11:02:54;99.28;;;64.63;;
63312;SDS011;49442;45.640;13.812;2024-01-15T11:05:21;101.15;;;61.15;;
63312;SDS011;49442;45.640;13.812;2024-01-15T11:07:50;93.07;;;62.42;;
63312;SDS011;49442;45.640;13.812;2024-01-15T11:13:14;103.63;;;63.92;;
63312;SDS011;49442;45.640;13.812;2024-01-15T11:16:01;94.35;;;62.83;;
63312;SDS011;49442;45.640;13.812;2024-01-15T11:18:30;94.13;;;62.47;;
63312;SDS011;49442;45.640;13.812;2024-01-15T11:23:44;96.60;;;61.42;;
63312;SDS011;49442;45.640;13.812;2024-01-15T11:26:30;91.93;;;61.25;;
63312;SDS011;49442;45.640;13.812;2024-01-15T11:28:56;94.22;;;60.13;;
63312;SDS011;49442;45.640;13.812;2024-01-15T11:34:06;97.87;;;59.87;;
63312;SDS011;49442;45.640;13.812;2024-01-15T11:42:01;94.97;;;60.42;;
63312;SDS011;49442;45.640;13.812;2024-01-15T11:44:30;88.35;;;59.47;;
63312;SDS011;49442;45.640;13.812;2024-01-15T11:52:07;95.70;;;61.67;;
63312;SDS011;49442;45.640;13.812;2024-01-15T11:54:37;90.60;;;61.13;;
63312;SDS011;49442;45.640;13.812;2024-01-15T11:57:09;82.65;;;55.30;;
63312;SDS011;49442;45.640;13.812;2024-01-15T11:59:38;88.07;;;58.28;;
63312;SDS011;49442;45.640;13.812;2024-01-15T12:02:04;85.60;;;58.05;;
63312;SDS011;49442;45.640;13.812;2024-01-15T12:04:30;91.13;;;59.20;;
63312;SDS011;49442;45.640;13.812;2024-01-15T12:06:56;98.53;;;61.28;;
63312;SDS011;49442;45.640;13.812;2024-01-15T12:09:21;89.97;;;57.90;;
63312;SDS011;49442;45.640;13.812;2024-01-15T12:11:51;82.18;;;54.53;;
63312;SDS011;49442;45.640;13.812;2024-01-15T12:14:26;88.53;;;57.58;;
63312;SDS011;49442;45.640;13.812;2024-01-15T12:16:54;78.15;;;55.08;;
63312;SDS011;49442;45.640;13.812;2024-01-15T12:19:20;76.55;;;48.20;;
63312;SDS011;49442;45.640;13.812;2024-01-15T12:21:45;60.95;;;42.30;;
63312;SDS011;49442;45.640;13.812;2024-01-15T12:24:12;59.30;;;39.50;;
63312;SDS011;49442;45.640;13.812;2024-01-15T12:26:37;58.25;;;39.22;;
63312;SDS011;49442;45.640;13.812;2024-01-15T12:29:05;57.80;;;40.53;;
63312;SDS011;49442;45.640;13.812;2024-01-15T12:31:31;63.63;;;38.88;;
63312;SDS011;49442;45.640;13.812;2024-01-15T12:33:57;66.80;;;45.17;;
63312;SDS011;49442;45.640;13.812;2024-01-15T12:36:23;65.57;;;43.10;;
63312;SDS011;49442;45.640;13.812;2024-01-15T12:38:48;60.33;;;40.75;;
63312;SDS011;49442;45.640;13.812;2024-01-15T12:41:14;61.45;;;40.50;;
63312;SDS011;49442;45.640;13.812;2024-01-15T12:43:40;61.90;;;42.42;;
63312;SDS011;49442;45.640;13.812;2024-01-15T12:46:06;62.08;;;39.17;;
63312;SDS011;49442;45.640;13.812;2024-01-15T12:48:32;57.15;;;38.90;;
63312;SDS011;49442;45.640;13.812;2024-01-15T12:50:58;57.67;;;37.08;;
63312;SDS011;49442;45.640;13.812;2024-01-15T12:53:23;54.33;;;36.90;;
63312;SDS011;49442;45.640;13.812;2024-01-15T12:55:49;64.47;;;41.78;;
63312;SDS011;49442;45.640;13.812;2024-01-15T12:58:14;61.30;;;39.88;;
63312;SDS011;49442;45.640;13.812;2024-01-15T13:00:40;60.25;;;40.20;;
63312;SDS011;49442;45.640;13.812;2024-01-15T13:03:06;62.67;;;39.03;;
63312;SDS011;49442;45.640;13.812;2024-01-15T13:05:32;56.00;;;37.38;;
63312;SDS011;49442;45.640;13.812;2024-01-15T13:07:59;59.45;;;39.67;;
63312;SDS011;49442;45.640;13.812;2024-01-15T13:10:24;56.25;;;38.85;;
63312;SDS011;49442;45.640;13.812;2024-01-15T13:12:50;58.00;;;40.40;;
63312;SDS011;49442;45.640;13.812;2024-01-15T13:15:16;57.88;;;40.33;;
63312;SDS011;49442;45.640;13.812;2024-01-15T13:17:42;59.28;;;39.42;;
63312;SDS011;49442;45.640;13.812;2024-01-15T13:20:08;69.60;;;41.88;;
63312;SDS011;49442;45.640;13.812;2024-01-15T13:22:36;65.05;;;44.22;;
63312;SDS011;49442;45.640;13.812;2024-01-15T13:25:04;61.35;;;40.85;;
63312;SDS011;49442;45.640;13.812;2024-01-15T13:27:32;66.18;;;42.47;;
63312;SDS011;49442;45.640;13.812;2024-01-15T13:29:59;70.18;;;48.22;;
63312;SDS011;49442;45.640;13.812;2024-01-15T13:32:26;69.80;;;48.58;;
63312;SDS011;49442;45.640;13.812;2024-01-15T13:34:54;66.82;;;45.05;;
63312;SDS011;49442;45.640;13.812;2024-01-15T13:37:22;94.93;;;61.97;;
63312;SDS011;49442;45.640;13.812;2024-01-15T13:39:50;66.50;;;45.92;;
63312;SDS011;49442;45.640;13.812;2024-01-15T13:42:17;61.65;;;39.83;;
63312;SDS011;49442;45.640;13.812;2024-01-15T13:44:43;65.90;;;40.65;;
63312;SDS011;49442;45.640;13.812;2024-01-15T13:47:08;57.13;;;36.85;;
63312;SDS011;49442;45.640;13.812;2024-01-15T13:49:35;60.08;;;41.67;;
63312;SDS011;49442;45.640;13.812;2024-01-15T13:52:01;64.50;;;42.47;;
63312;SDS011;49442;45.640;13.812;2024-01-15T13:54:29;69.22;;;45.28;;
63312;SDS011;49442;45.640;13.812;2024-01-15T13:56:55;67.15;;;45.40;;
63312;SDS011;49442;45.640;13.812;2024-01-15T13:59:21;67.65;;;43.22;;
63312;SDS011;49442;45.640;13.812;2024-01-15T14:01:48;63.63;;;43.45;;
63312;SDS011;49442;45.640;13.812;2024-01-15T14:04:13;68.70;;;45.60;;
63312;SDS011;49442;45.640;13.812;2024-01-15T14:06:39;65.43;;;45.33;;
63312;SDS011;49442;45.640;13.812;2024-01-15T14:09:05;70.70;;;46.13;;
63312;SDS011;49442;45.640;13.812;2024-01-15T14:11:30;69.55;;;46.65;;
63312;SDS011;49442;45.640;13.812;2024-01-15T14:13:56;89.40;;;61.10;;